Time;durP1;ratioP1;P1;durP2;ratioP2;P2;SDS_P1;SDS_P2;PMS_P1;PMS_P2;Temp;Humidity;BMP_temperature;BMP_pressure;BME280_temperature;BME280_humidity;BME280_pressure;Samples;Min_cycle;Max_cycle;Signal;HPM_P1;HPM_P2
2022/01/14 00:00:49;;;;;;;35.53;21.20;;;;;;;0.56;77.13;100982.91;2620473;39;20429;-70
2022/01/14 00:03:19;;;;;;;37.67;21.20;;;;;;;0.47;77.31;100978.16;2620441;47;20026;-70
2022/01/14 00:05:51;;;;;;;33.53;19.98;;;;;;;0.38;77.32;100974.25;2621433;54;20022;-71
2022/01/14 00:08:21;;;;;;;38.22;20.48;;;;;;;0.32;77.16;100966.72;2622742;54;20042;-71
2022/01/14 00:10:51;;;;;;;32.22;19.70;;;;;;;0.28;77.36;100965.19;2622927;54;20073;-69
2022/01/14 00:16:03;;;;;;;29.10;17.80;;;;;;;0.10;77.67;100959.13;2622148;54;20042;-71
2022/01/14 00:18:33;;;;;;;28.48;18.30;;;;;;;0.08;77.59;100973.97;2622836;54;20031;-71
2022/01/14 00:21:06;;;;;;;33.05;19.25;;;;;;;0.04;77.97;100963.75;2623218;54;20037;-72
2022/01/14 00:23:39;;;;;;;28.80;17.95;;;;;;;0.05;77.94;100968.06;2623721;54;20030;-70
2022/01/14 00:31:50;;;;;;;28.65;17.40;;;;;;;0.04;78.05;100955.97;2619518;39;20427;-71
2022/01/14 00:34:19;;;;;;;24.10;16.08;;;;;;;0.03;78.30;100951.69;2619505;54;20027;-71
2022/01/14 00:36:52;;;;;;;27.83;16.25;;;;;;;0.02;78.27;100953.44;2619349;54;20037;-71
2022/01/14 00:39:22;;;;;;;27.65;17.55;;;;;;;0.02;77.99;100950.84;2619827;54;20030;-69
2022/01/14 00:41:52;;;;;;;28.55;17.73;;;;;;;-0.13;77.91;100955.00;2618232;54;20030;-70
2022/01/14 00:44:22;;;;;;;31.75;19.73;;;;;;;-0.11;78.23;100954.94;2619193;54;20038;-70
2022/01/14 00:46:53;;;;;;;33.17;18.63;;;;;;;-0.05;77.91;100949.44;2619467;54;20027;-69
2022/01/14 00:49:23;;;;;;;30.20;18.30;;;;;;;-0.03;78.29;100945.88;2619357;54;20042;-70
2022/01/14 00:51:55;;;;;;;30.20;18.38;;;;;;;0.01;78.07;100941.38;2619022;47;20038;-70
2022/01/14 00:54:26;;;;;;;27.83;17.35;;;;;;;0.04;78.28;100941.22;2621004;39;20451;-70
2022/01/14 00:57:15;;;;;;;28.00;16.77;;;;;;;0.12;77.98;100936.50;2619566;54;20034;-69
2022/01/14 00:59:42;;;;;;;27.27;16.27;;;;;;;0.14;77.93;100939.84;2619552;54;20031;-71
2022/01/14 01:02:12;;;;;;;26.52;16.83;;;;;;;0.12;78.06;100933.03;2619377;54;20042;-70
2022/01/14 01:04:42;;;;;;;27.35;17.33;;;;;;;0.11;77.81;100927.00;2620293;39;20414;-69
2022/01/14 01:07:15;;;;;;;26.48;17.02;;;;;;;0.04;77.28;100925.63;2619480;54;20030;-72
2022/01/14 01:09:48;;;;;;;27.58;17.08;;;;;;;-0.06;77.83;100925.19;2619746;54;20034;-70
2022/01/14 01:12:31;;;;;;;25.90;15.10;;;;;;;-0.18;77.51;100919.75;2619458;54;20077;-69
2022/01/14 01:15:11;;;;;;;24.17;14.63;;;;;;;-0.27;77.93;100916.66;2617909;51;20030;-70
2022/01/14 01:17:41;;;;;;;26.00;15.52;;;;;;;-0.29;77.80;100926.31;2619497;54;20042;-70
2022/01/14 01:20:17;;;;;;;24.98;14.35;;;;;;;-0.32;77.84;100923.84;2619600;54;20565;-73
2022/01/14 01:22:51;;;;;;;24.15;13.45;;;;;;;-0.32;78.14;100923.84;2620250;54;20030;-73
2022/01/14 01:25:38;;;;;;;24.67;13.50;;;;;;;-0.33;78.20;100926.50;2618461;47;20573;-73
2022/01/14 01:28:08;;;;;;;23.35;13.88;;;;;;;-0.31;78.21;100922.09;2619874;39;20437;-70
2022/01/14 01:33:23;;;;;;;22.38;13.93;;;;;;;-0.29;78.10;100922.84;2618430;54;20022;-69
2022/01/14 01:35:53;;;;;;;25.65;14.73;;;;;;;-0.16;78.44;100928.31;2619941;39;20449;-69
2022/01/14 01:38:25;;;;;;;23.45;14.57;;;;;;;-0.11;78.17;100929.78;2619665;54;20031;-69
2022/01/14 01:40:55;;;;;;;24.02;16.00;;;;;;;-0.06;77.96;100932.16;2618346;47;20082;-69
2022/01/14 01:43:26;;;;;;;24.05;15.25;;;;;;;-0.12;77.90;100933.31;2618176;54;20030;-70
2022/01/14 01:45:58;;;;;;;24.08;15.07;;;;;;;-0.26;77.53;100931.34;2617903;54;20038;-69
2022/01/14 01:48:28;;;;;;;25.90;17.35;;;;;;;-0.35;77.93;100933.53;2617827;54;20034;-70
2022/01/14 01:50:58;;;;;;;29.42;17.10;;;;;;;-0.33;78.01;100927.38;2617948;54;20026;-69
2022/01/14 01:53:31;;;;;;;27.33;16.42;;;;;;;-0.39;78.34;100924.19;2618055;54;20022;-69
2022/01/14 01:56:00;;;;;;;25.67;15.25;;;;;;;-0.41;78.03;100926.00;2618175;39;20529;-70
2022/01/14 01:58:30;;;;;;;24.38;15.95;;;;;;;-0.33;78.48;100926.50;2617845;54;20034;-69
2022/01/14 02:01:00;;;;;;;21.50;13.98;;;;;;;-0.26;78.36;100927.91;2618063;54;20107;-69
2022/01/14 02:03:30;;;;;;;23.10;13.90;;;;;;;-0.18;78.44;100917.16;2618373;31;20548;-70
2022/01/14 02:05:59;;;;;;;19.55;12.90;;;;;;;-0.16;77.79;100918.78;2617551;54;20035;-70
2022/01/14 02:08:32;;;;;;;20.50;12.80;;;;;;;-0.06;78.10;100908.75;2618133;54;20030;-70
2022/01/14 02:11:02;;;;;;;20.00;12.48;;;;;;;-0.04;78.16;100912.16;2618015;54;20075;-68
2022/01/14 02:13:32;;;;;;;28.42;16.10;;;;;;;-0.13;77.42;100908.19;2619032;39;20560;-68
2022/01/14 02:16:18;;;;;;;24.08;14.45;;;;;;;-0.11;77.53;100898.59;2618686;39;20590;-68
2022/01/14 02:19:13;;;;;;;26.58;16.88;;;;;;;-0.11;77.64;100898.59;2619319;39;20584;-69
2022/01/14 02:24:56;;;;;;;23.83;15.32;;;;;;;-0.02;77.60;100894.69;2619171;54;20034;-69
2022/01/14 02:27:25;;;;;;;;;;;;;;;-0.07;76.88;100886.28;2619639;39;20467;-70
2022/01/14 02:29:55;;;;;;;30.67;16.30;;;;;;;-0.12;77.31;100880.47;2619258;54;19946;-69
2022/01/14 02:32:24;;;;;;;28.13;16.13;;;;;;;-0.18;77.08;100883.34;2618978;47;20053;-70
2022/01/14 02:34:54;;;;;;;25.13;16.05;;;;;;;-0.17;77.08;100874.63;2618800;54;20082;-70
2022/01/14 02:37:46;;;;;;;30.92;17.83;;;;;;;-0.26;76.72;100865.53;2620573;54;20046;-69
2022/01/14 02:40:17;;;;;;;29.75;17.02;;;;;;;-0.35;76.85;100871.16;2619579;54;20041;-70
2022/01/14 02:42:47;;;;;;;30.58;16.90;;;;;;;-0.38;77.55;100860.91;2621754;54;20033;-70
2022/01/14 02:45:18;;;;;;;28.15;16.42;;;;;;;-0.43;77.49;100858.53;2621106;39;20434;-70
2022/01/14 02:47:47;;;;;;;24.15;15.75;;;;;;;-0.50;77.55;100855.34;2620979;54;20589;-70
2022/01/14 02:50:20;;;;;;;25.45;14.80;;;;;;;-0.50;77.65;100852.75;2623121;47;20033;-71
2022/01/14 02:53:01;;;;;;;22.77;14.15;;;;;;;-0.39;78.07;100849.66;2625460;47;20030;-71
2022/01/14 02:55:32;;;;;;;24.17;15.68;;;;;;;-0.32;77.64;100853.66;2626278;54;20042;-70
2022/01/14 02:58:02;;;;;;;26.60;15.25;;;;;;;-0.41;77.28;100845.44;2627247;54;20033;-70
2022/01/14 03:00:33;;;;;;;24.08;14.65;;;;;;;-0.45;77.29;100841.31;2628228;54;20047;-71
2022/01/14 03:03:07;;;;;;;22.70;14.85;;;;;;;-0.50;77.77;100837.16;2629054;54;20030;-72
2022/01/14 03:05:36;;;;;;;25.15;14.00;;;;;;;-0.41;77.75;100833.31;2628622;50;20054;-71
2022/01/14 03:08:09;;;;;;;24.65;14.43;;;;;;;-0.34;77.66;100837.28;2628969;54;20027;-71
2022/01/14 03:10:38;;;;;;;21.15;14.02;;;;;;;-0.35;78.07;100840.81;2628632;54;20038;-71
2022/01/14 03:13:08;;;;;;;26.25;14.73;;;;;;;-0.31;77.29;100839.75;2628906;54;20026;-71
2022/01/14 03:15:38;;;;;;;27.70;15.50;;;;;;;-0.50;77.12;100829.38;2627958;54;20030;-71
2022/01/14 03:18:07;;;;;;;27.38;16.65;;;;;;;-0.55;77.17;100831.34;2627839;54;20058;-71
2022/01/14 03:20:50;;;;;;;27.75;16.83;;;;;;;-0.51;77.55;100830.31;2628448;54;20041;-70
2022/01/14 03:23:22;;;;;;;29.33;16.80;;;;;;;-0.53;77.57;100829.53;2628108;54;20034;-70
2022/01/14 03:25:52;;;;;;;26.25;14.88;;;;;;;-0.56;77.37;100826.25;2627164;54;20049;-69
2022/01/14 03:28:25;;;;;;;25.13;16.27;;;;;;;-0.50;77.74;100831.97;2625871;46;20026;-69
2022/01/14 03:30:56;;;;;;;23.23;15.50;;;;;;;-0.52;77.39;100823.44;2626696;47;20042;-72
2022/01/14 03:33:25;;;;;;;24.50;15.65;;;;;;;-0.53;77.36;100832.16;2625852;54;20038;-71
2022/01/14 03:35:55;;;;;;;23.15;13.90;;;;;;;-0.55;77.58;100830.53;2625518;54;20067;-71
2022/01/14 03:38:27;;;;;;;26.27;14.65;;;;;;;-0.59;77.64;100829.81;2625621;54;20030;-71
2022/01/14 03:40:57;;;;;;;30.27;14.73;;;;;;;-0.59;77.98;100829.81;2626622;54;20030;-70
2022/01/14 03:43:27;;;;;;;23.75;14.60;;;;;;;-0.54;78.01;100832.19;2626510;54;20038;-69
2022/01/14 03:45:57;;;;;;;23.63;13.55;;;;;;;-0.42;77.81;100841.16;2626165;54;20027;-70
2022/01/14 03:48:27;;;;;;;24.10;15.80;;;;;;;-0.43;77.34;100835.13;2626442;54;20041;-70
2022/01/14 03:50:56;;;;;;;25.42;15.52;;;;;;;-0.54;77.39;100835.63;2626302;47;20066;-73
2022/01/14 03:53:28;;;;;;;23.27;14.70;;;;;;;-0.56;77.21;100840.06;2626653;54;20038;-72
2022/01/14 03:55:58;;;;;;;25.60;15.55;;;;;;;-0.44;77.66;100836.06;2626736;54;20034;-69
2022/01/14 03:58:40;;;;;;;26.83;16.00;;;;;;;-0.30;77.64;100840.59;2626753;54;20026;-70
2022/01/14 04:01:10;;;;;;;25.67;15.10;;;;;;;-0.28;77.35;100847.41;2626663;54;20038;-71
2022/01/14 04:03:42;;;;;;;26.23;15.20;;;;;;;-0.25;77.17;100846.41;2626639;54;20031;-71
2022/01/14 04:06:13;;;;;;;25.60;15.70;;;;;;;-0.18;77.15;100849.56;2626541;54;20031;-70
2022/01/14 04:08:46;;;;;;;21.73;14.43;;;;;;;-0.11;77.22;100848.34;2626327;54;20038;-70
2022/01/14 04:11:16;;;;;;;24.77;15.77;;;;;;;-0.10;76.93;100848.25;2626927;54;20030;-70
2022/01/14 04:13:47;;;;;;;27.95;15.85;;;;;;;-0.10;76.33;100842.22;2626421;54;20588;-73
2022/01/14 04:16:16;;;;;;;26.08;15.75;;;;;;;-0.09;76.53;100849.09;2626199;54;20038;-72
2022/01/14 04:18:46;;;;;;;29.95;16.10;;;;;;;-0.14;76.22;100841.53;2626028;54;20030;-71
2022/01/14 04:21:15;;;;;;;27.30;16.02;;;;;;;-0.24;76.12;100837.72;2626334;47;20047;-70
2022/01/14 04:23:47;;;;;;;26.40;16.80;;;;;;;-0.28;76.44;100836.16;2626641;54;20035;-71
2022/01/14 04:26:17;;;;;;;28.05;16.40;;;;;;;-0.32;76.32;100837.25;2623078;54;20582;-71
2022/01/14 04:28:47;;;;;;;23.77;15.05;;;;;;;-0.54;76.15;100825.25;2623257;54;20034;-71
2022/01/14 04:31:16;;;;;;;28.55;16.75;;;;;;;-0.58;76.74;100831.50;2624716;54;20023;-70
2022/01/14 04:33:46;;;;;;;27.35;17.25;;;;;;;-0.58;76.61;100828.91;2624521;54;20030;-71
2022/01/14 04:36:15;;;;;;;26.45;16.00;;;;;;;-0.66;76.81;100812.81;2624378;54;20030;-70
2022/01/14 04:38:47;;;;;;;22.50;15.20;;;;;;;-0.62;77.18;100816.13;2624339;54;20039;-70
2022/01/14 04:41:17;;;;;;;22.02;13.82;;;;;;;-0.57;77.41;100815.00;2626655;54;20066;-71
2022/01/14 04:43:47;;;;;;;34.35;20.77;;;;;;;-0.50;77.27;100813.78;2625936;54;20023;-70
2022/01/14 04:46:47;;;;;;;24.38;14.85;;;;;;;-0.54;76.58;100807.06;2620251;54;20030;-71
2022/01/14 04:49:16;;;;;;;25.88;15.18;;;;;;;-0.65;76.80;100817.13;2623940;46;20038;-71
2022/01/14 04:51:46;;;;;;;22.20;13.85;;;;;;;-0.68;76.86;100812.06;2627305;54;20057;-72
2022/01/14 04:54:18;;;;;;;24.65;14.93;;;;;;;-0.72;76.98;100814.88;2626820;54;20034;-71
2022/01/14 04:56:48;;;;;;;21.35;14.68;;;;;;;-0.68;77.22;100809.47;2627598;54;20045;-71
2022/01/14 04:59:17;;;;;;;22.58;14.27;;;;;;;-0.68;77.29;100808.63;2627979;54;20107;-71
2022/01/14 05:01:47;;;;;;;22.45;13.75;;;;;;;-0.64;77.44;100804.97;2627049;47;20022;-71
2022/01/14 05:04:17;;;;;;;22.35;14.85;;;;;;;-0.62;77.38;100800.53;2626511;39;20423;-71
2022/01/14 05:06:54;;;;;;;21.05;13.25;;;;;;;-0.63;77.43;100802.31;2627112;54;20026;-70
2022/01/14 05:09:32;;;;;;;21.83;14.02;;;;;;;-0.68;77.17;100803.44;2625152;54;20038;-70
2022/01/14 05:12:06;;;;;;;20.50;13.55;;;;;;;-0.69;77.18;100801.78;2623238;47;20553;-71
2022/01/14 05:14:36;;;;;;;;;;;;;;;-0.57;77.48;100809.81;2626126;54;20549;-74
2022/01/14 05:17:06;;;;;;;27.35;15.95;;;;;;;-0.61;76.87;100810.88;2620912;46;19962;-63
2022/01/14 05:19:37;;;;;;;26.15;15.68;;;;;;;-0.61;77.15;100803.09;2618840;39;20388;-62
2022/01/14 05:22:07;;;;;;;24.13;14.57;;;;;;;-0.66;76.72;100812.00;2618552;54;20155;-63
2022/01/14 05:24:39;;;;;;;24.30;15.45;;;;;;;-0.66;76.97;100810.22;2617879;47;20085;-63
2022/01/14 05:27:09;;;;;;;29.88;16.90;;;;;;;-0.60;76.72;100811.72;2618558;54;20030;-62
2022/01/14 05:29:39;;;;;;;26.98;16.27;;;;;;;-0.63;76.84;100812.69;2618020;47;20537;-64
2022/01/14 05:32:13;;;;;;;23.92;15.23;;;;;;;-0.56;77.26;100815.84;2618518;54;20042;-64
2022/01/14 05:34:43;;;;;;;;;;;;;;;-0.53;76.91;100813.13;2618551;54;20069;-65
2022/01/14 05:37:14;;;;;;;29.40;16.15;;;;;;;-0.50;76.71;100808.59;2618363;54;19947;-64
2022/01/14 05:39:46;;;;;;;24.17;15.73;;;;;;;-0.61;76.47;100818.66;2618457;54;20066;-63
2022/01/14 05:42:16;;;;;;;25.10;15.48;;;;;;;-0.66;76.42;100818.03;2618448;54;20034;-63
2022/01/14 05:44:48;;;;;;;27.45;16.33;;;;;;;-0.63;76.79;100817.88;2618573;54;20130;-63
2022/01/14 05:47:18;;;;;;;21.48;14.43;;;;;;;-0.56;76.53;100815.84;2619317;54;20038;-63
2022/01/14 05:49:47;;;;;;;29.38;16.42;;;;;;;-0.51;76.85;100819.06;2620316;54;20062;-63
2022/01/14 05:52:17;;;;;;;26.40;15.20;;;;;;;-0.49;76.34;100812.06;2620336;54;20034;-64
2022/01/14 05:54:51;;;;;;;25.40;16.10;;;;;;;-0.45;76.03;100818.78;2619150;54;20042;-64
2022/01/14 05:57:21;;;;;;;24.30;14.70;;;;;;;-0.49;76.21;100814.66;2619071;54;20042;-63
2022/01/14 05:59:51;;;;;;;24.33;15.68;;;;;;;-0.45;75.97;100817.91;2618592;54;20057;-64
2022/01/14 06:02:21;;;;;;;27.40;16.55;;;;;;;-0.44;75.92;100804.88;2619493;54;20031;-64
2022/01/14 06:04:50;;;;;;;27.05;16.30;;;;;;;-0.45;75.72;100804.94;2619133;54;20027;-63
2022/01/14 06:07:20;;;;;;;28.23;17.35;;;;;;;-0.42;76.22;100802.19;2617964;47;20553;-63
2022/01/14 06:09:52;;;;;;;27.48;18.00;;;;;;;-0.40;76.12;100800.38;2618619;54;20039;-64
2022/01/14 06:12:21;;;;;;;26.20;15.90;;;;;;;-0.42;76.07;100797.84;2618691;54;20030;-64
2022/01/14 06:14:51;;;;;;;27.92;16.92;;;;;;;-0.59;75.71;100801.25;2618707;54;20034;-64
2022/01/14 06:17:20;;;;;;;26.58;16.27;;;;;;;-0.62;75.82;100798.78;2617833;47;20034;-64
2022/01/14 06:19:50;;;;;;;27.50;17.80;;;;;;;-0.58;75.98;100802.06;2618837;54;20064;-62
2022/01/14 06:22:24;;;;;;;27.57;16.93;;;;;;;-0.54;76.35;100793.22;2619547;54;20034;-62
2022/01/14 06:24:57;;;;;;;27.48;16.65;;;;;;;-0.53;76.36;100795.78;2619007;54;20360;-62
2022/01/14 06:27:26;;;;;;;25.57;15.50;;;;;;;-0.56;76.09;100793.31;2620091;54;20034;-62
2022/01/14 06:29:56;;;;;;;25.38;15.85;;;;;;;-0.56;76.14;100802.88;2619838;54;20027;-62
2022/01/14 06:32:26;;;;;;;27.58;15.68;;;;;;;-0.54;76.40;100801.03;2619732;54;20085;-65
2022/01/14 06:34:55;;;;;;;26.45;16.15;;;;;;;-0.56;76.07;100805.47;2619099;54;20030;-63
2022/01/14 06:37:26;;;;;;;25.20;15.10;;;;;;;-0.55;76.40;100795.00;2618315;47;20573;-64
2022/01/14 06:39:58;;;;;;;25.90;15.02;;;;;;;-0.48;76.40;100799.91;2618917;54;20028;-63
2022/01/14 06:42:28;;;;;;;26.10;15.80;;;;;;;-0.51;75.83;100812.13;2618552;54;20074;-64
2022/01/14 06:44:57;;;;;;;24.60;14.77;;;;;;;-0.64;76.15;100811.00;2617767;47;20026;-63
2022/01/14 06:47:27;;;;;;;26.25;16.65;;;;;;;-0.55;76.52;100813.16;2617847;54;20034;-63
2022/01/14 06:49:57;;;;;;;30.08;16.13;;;;;;;-0.49;76.28;100814.66;2618137;54;20046;-62
2022/01/14 06:52:27;;;;;;;29.45;17.00;;;;;;;-0.42;76.19;100807.38;2618391;54;20081;-63
2022/01/14 06:54:59;;;;;;;31.48;17.55;;;;;;;-0.44;76.03;100809.25;2618228;54;20042;-63
2022/01/14 06:57:28;;;;;;;29.75;19.00;;;;;;;-0.44;75.99;100817.88;2618115;54;20102;-63
2022/01/14 06:59:58;;;;;;;28.85;18.23;;;;;;;-0.43;75.80;100803.13;2618249;54;20029;-62
2022/01/14 07:02:27;;;;;;;29.17;16.83;;;;;;;-0.42;75.75;100807.38;2619374;54;20034;-63
2022/01/14 07:05:01;;;;;;;29.15;17.10;;;;;;;-0.36;75.97;100801.91;2621215;31;20531;-63
2022/01/14 07:07:31;;;;;;;27.30;17.83;;;;;;;-0.37;76.21;100805.41;2619645;54;20042;-63
2022/01/14 07:10:04;;;;;;;26.17;17.05;;;;;;;-0.31;75.70;100812.91;2618211;54;20034;-63
2022/01/14 07:12:36;;;;;;;28.52;17.65;;;;;;;-0.30;75.50;100806.81;2618645;54;20030;-63
2022/01/14 07:15:10;;;;;;;25.98;16.67;;;;;;;-0.29;75.89;100811.06;2617737;47;20039;-63
2022/01/14 07:17:41;;;;;;;30.08;18.33;;;;;;;-0.27;75.64;100812.69;2617815;47;20038;-63
2022/01/14 07:20:13;;;;;;;29.17;17.42;;;;;;;-0.33;75.04;100805.22;2618408;54;20030;-64
2022/01/14 07:22:45;;;;;;;26.50;18.13;;;;;;;-0.42;75.24;100800.44;2618437;54;20049;-63
2022/01/14 07:25:22;;;;;;;31.23;18.02;;;;;;;-0.41;75.36;100807.34;2617614;47;20023;-63
2022/01/14 07:27:52;;;;;;;26.17;17.40;;;;;;;-0.39;75.30;100808.09;2618540;39;20457;-63
2022/01/14 07:30:22;;;;;;;29.52;17.45;;;;;;;-0.47;75.45;100815.41;2618189;54;20134;-63
2022/01/14 07:32:52;;;;;;;30.25;17.25;;;;;;;-0.43;75.24;100811.75;2618194;54;20038;-64
2022/01/14 07:35:22;;;;;;;36.63;19.70;;;;;;;-0.39;75.34;100813.28;2618062;54;20086;-63
2022/01/14 07:37:51;;;;;;;28.80;17.65;;;;;;;-0.38;75.27;100814.13;2617998;54;20027;-63
2022/01/14 07:40:23;;;;;;;30.92;18.65;;;;;;;-0.32;75.49;100821.66;2618577;39;20430;-63
2022/01/14 07:42:53;;;;;;;30.55;19.23;;;;;;;-0.35;75.43;100819.19;2618118;54;20118;-63
2022/01/14 07:45:23;;;;;;;31.10;18.88;;;;;;;-0.35;75.43;100830.41;2618269;54;20069;-65
2022/01/14 07:47:52;;;;;;;31.08;18.80;;;;;;;-0.36;75.22;100828.75;2618152;54;20050;-63
2022/01/14 07:50:27;;;;;;;27.73;17.30;;;;;;;-0.34;75.01;100828.66;2618345;39;20534;-64
2022/01/14 07:52:57;;;;;;;30.70;18.10;;;;;;;-0.33;75.13;100830.34;2618040;54;20106;-65
2022/01/14 07:55:35;;;;;;;26.00;15.63;;;;;;;-0.36;74.99;100835.69;2617981;54;20078;-63
2022/01/14 07:58:05;;;;;;;25.67;15.98;;;;;;;-0.31;74.81;100836.31;2617459;47;20042;-64
2022/01/14 08:00:36;;;;;;;27.58;16.75;;;;;;;-0.29;75.01;100835.34;2618382;54;20557;-64
2022/01/14 08:03:05;;;;;;;26.17;17.00;;;;;;;-0.28;75.17;100843.97;2618084;54;20023;-64
2022/01/14 08:05:35;;;;;;;28.67;16.65;;;;;;;-0.21;75.12;100841.91;2618071;54;20041;-63
2022/01/14 08:08:07;;;;;;;28.45;16.13;;;;;;;-0.12;74.76;100847.50;2620299;39;20540;-63
2022/01/14 08:10:40;;;;;;;33.47;18.52;;;;;;;-0.07;74.56;100842.94;2620103;54;20034;-63
2022/01/14 08:13:10;;;;;;;29.33;17.42;;;;;;;-0.05;74.24;100848.88;2620544;54;20034;-63
2022/01/14 08:15:39;;;;;;;39.05;21.45;;;;;;;-0.04;74.35;100849.75;2620394;54;20065;-64
2022/01/14 08:18:09;;;;;;;29.15;17.70;;;;;;;-0.04;74.46;100847.16;2620569;54;20094;-63
2022/01/14 08:20:39;;;;;;;28.63;18.48;;;;;;;-0.06;73.70;100836.81;2620798;54;20026;-64
2022/01/14 08:23:08;;;;;;;28.67;20.08;;;;;;;-0.35;74.08;100843.41;2622914;54;20037;-63
2022/01/14 08:25:40;;;;;;;37.40;19.73;;;;;;;-0.38;74.49;100838.34;2624075;54;20058;-63
2022/01/14 08:28:10;;;;;;;32.28;19.38;;;;;;;-0.31;74.86;100838.91;2622815;54;20030;-64
2022/01/14 08:30:39;;;;;;;32.83;18.95;;;;;;;-0.20;74.67;100834.03;2618875;47;20055;-63
2022/01/14 08:33:09;;;;;;;28.30;17.67;;;;;;;-0.16;74.42;100838.19;2619221;54;20131;-64
2022/01/14 08:35:39;;;;;;;26.52;17.80;;;;;;;-0.13;74.19;100838.00;2619110;54;20149;-64
2022/01/14 08:38:09;;;;;;;30.90;16.23;;;;;;;-0.17;74.42;100831.28;2618842;54;20082;-65
2022/01/14 08:40:41;;;;;;;29.92;16.92;;;;;;;-0.11;74.97;100841.38;2619157;54;20030;-63
2022/01/14 08:43:11;;;;;;;26.90;16.77;;;;;;;-0.10;74.96;100830.06;2619013;54;20034;-64
2022/01/14 08:45:41;;;;;;;27.75;16.10;;;;;;;-0.03;74.90;100836.66;2619063;54;20030;-63
2022/01/14 08:48:11;;;;;;;26.02;15.27;;;;;;;0.16;75.12;100828.81;2619509;31;20472;-63
2022/01/14 08:50:41;;;;;;;28.13;14.10;;;;;;;0.29;74.68;100829.00;2618792;54;20057;-63
2022/01/14 08:53:14;;;;;;;28.77;15.68;;;;;;;0.47;74.79;100829.84;2618764;54;20061;-63
2022/01/14 08:55:46;;;;;;;29.23;15.07;;;;;;;0.59;73.89;100829.19;2618662;54;20031;-63
2022/01/14 08:58:16;;;;;;;29.83;15.52;;;;;;;0.63;73.99;100817.72;2618636;54;20419;-63
2022/01/14 09:00:48;;;;;;;26.52;14.23;;;;;;;0.69;74.02;100820.00;2618765;54;20047;-64
2022/01/14 09:03:18;;;;;;;24.48;14.68;;;;;;;0.72;73.34;100816.38;2618626;54;20026;-64
2022/01/14 09:05:47;;;;;;;29.15;16.30;;;;;;;0.74;73.57;100806.75;2618419;54;20030;-64
2022/01/14 09:08:17;;;;;;;26.52;13.60;;;;;;;0.78;73.27;100805.66;2617899;47;20037;-63
2022/01/14 09:10:49;;;;;;;23.23;13.40;;;;;;;0.87;73.30;100805.16;2618758;54;20130;-64
2022/01/14 09:13:19;;;;;;;23.55;13.70;;;;;;;0.97;72.77;100802.91;2618739;54;20045;-64
2022/01/14 09:15:49;;;;;;;21.67;12.35;;;;;;;0.99;72.82;100806.28;2618460;54;20045;-64
2022/01/14 09:18:19;;;;;;;19.20;11.90;;;;;;;1.02;72.69;100808.72;2618582;54;20090;-64
2022/01/14 09:20:48;;;;;;;20.10;14.02;;;;;;;1.03;72.03;100812.16;2618139;47;20804;-63
2022/01/14 09:23:24;;;;;;;21.58;13.70;;;;;;;1.02;72.27;100815.66;2618223;47;20045;-63
2022/01/14 09:25:57;;;;;;;20.75;13.95;;;;;;;1.05;72.09;100823.31;2619108;54;20592;-65
2022/01/14 09:28:28;;;;;;;22.27;14.27;;;;;;;1.02;71.96;100823.47;2618537;54;20041;-65
2022/01/14 09:30:59;;;;;;;23.30;13.57;;;;;;;1.19;72.22;100824.28;2619412;54;20363;-65
2022/01/14 09:33:30;;;;;;;20.52;12.82;;;;;;;1.31;72.66;100833.19;2618733;54;20035;-64
2022/01/14 09:36:00;;;;;;;17.48;12.57;;;;;;;1.45;72.65;100835.03;2618287;47;20065;-64
2022/01/14 09:38:30;;;;;;;20.77;12.77;;;;;;;1.60;72.52;100834.19;2618516;54;20042;-65
2022/01/14 09:41:02;;;;;;;18.33;11.95;;;;;;;1.65;71.88;100831.31;2618641;54;20050;-64
2022/01/14 09:43:36;;;;;;;19.70;11.77;;;;;;;1.71;71.85;100829.22;2618481;54;20039;-64
2022/01/14 09:46:08;;;;;;;19.05;13.50;;;;;;;1.82;71.76;100827.75;2617610;46;20039;-64
2022/01/14 09:48:38;;;;;;;21.05;14.07;;;;;;;1.86;71.17;100831.88;2618930;39;20505;-65
2022/01/14 09:51:08;;;;;;;23.45;14.70;;;;;;;1.91;70.94;100832.44;2618679;54;20042;-64
2022/01/14 09:53:38;;;;;;;20.50;13.63;;;;;;;1.97;71.31;100829.50;2618760;54;20042;-65
2022/01/14 09:56:10;;;;;;;21.75;14.50;;;;;;;2.10;71.13;100827.84;2618160;54;20031;-64
2022/01/14 09:58:46;;;;;;;23.48;13.07;;;;;;;2.28;71.16;100825.09;2618163;54;20039;-64
2022/01/14 10:01:18;;;;;;;21.35;13.30;;;;;;;2.43;71.07;100825.03;2618452;54;20526;-63
2022/01/14 10:03:56;;;;;;;24.85;13.95;;;;;;;2.53;70.85;100821.84;2618465;54;20071;-63
2022/01/14 10:06:40;;;;;;;27.40;14.68;;;;;;;2.56;70.44;100816.47;2618248;54;20045;-63
2022/01/14 10:09:12;;;;;;;25.63;17.15;;;;;;;2.65;70.44;100813.28;2617913;54;20027;-63
2022/01/14 10:11:47;;;;;;;25.95;16.17;;;;;;;2.73;70.73;100805.81;2618483;54;20045;-65
2022/01/14 10:14:20;;;;;;;26.42;16.58;;;;;;;2.80;70.03;100804.53;2617835;47;20034;-64
2022/01/14 10:16:56;;;;;;;28.02;16.83;;;;;;;2.85;70.31;100797.25;2618166;54;20538;-65
2022/01/14 10:19:30;;;;;;;26.90;16.92;;;;;;;2.90;69.72;100794.38;2618000;47;20034;-64
2022/01/14 10:22:00;;;;;;;31.55;19.33;;;;;;;2.89;69.25;100795.28;2617955;54;20038;-63
2022/01/14 10:24:31;;;;;;;27.85;18.23;;;;;;;2.85;69.24;100788.56;2618614;54;20077;-64
2022/01/14 10:27:06;;;;;;;26.25;17.63;;;;;;;2.85;69.85;100785.97;2618194;54;20086;-63
2022/01/14 10:29:38;;;;;;;29.67;18.02;;;;;;;3.00;69.78;100784.19;2617678;47;20545;-63
2022/01/14 10:32:12;;;;;;;25.20;16.97;;;;;;;3.08;69.47;100785.38;2617603;54;20034;-63
2022/01/14 10:34:42;;;;;;;32.25;18.65;;;;;;;3.13;69.90;100785.91;2618280;54;20032;-63
2022/01/14 10:37:14;;;;;;;36.08;19.00;;;;;;;3.27;69.74;100784.22;2618057;54;20034;-63
2022/01/14 10:39:49;;;;;;;39.00;20.17;;;;;;;3.41;69.88;100776.31;2617761;54;20034;-63
2022/01/14 10:42:30;;;;;;;42.72;19.33;;;;;;;3.57;69.50;100777.03;2618128;54;20058;-63
2022/01/14 10:45:19;;;;;;;33.55;18.35;;;;;;;3.67;69.17;100774.63;2618169;54;20023;-65
2022/01/14 10:47:57;;;;;;;36.08;19.27;;;;;;;3.77;69.29;100769.66;2618100;54;20027;-63
2022/01/14 10:50:37;;;;;;;39.30;21.58;;;;;;;3.84;69.58;100763.91;2618320;54;20026;-64
2022/01/14 10:53:12;;;;;;;35.30;20.73;;;;;;;3.94;69.38;100762.34;2618445;54;20552;-64
2022/01/14 10:55:47;;;;;;;40.50;20.77;;;;;;;3.97;68.74;100759.53;2617681;47;20030;-63
2022/01/14 10:58:26;;;;;;;31.88;19.25;;;;;;;4.03;68.71;100752.22;2618840;54;20082;-62
2022/01/14 11:00:59;;;;;;;31.10;17.55;;;;;;;4.12;69.00;100748.97;2619301;47;20042;-62
2022/01/14 11:03:37;;;;;;;33.50;18.92;;;;;;;4.29;68.77;100742.63;2620796;54;20035;-65
2022/01/14 11:06:21;;;;;;;31.70;19.77;;;;;;;4.40;68.58;100746.16;2620037;54;20038;-64
2022/01/14 11:08:56;;;;;;;39.05;21.52;;;;;;;4.52;68.41;100741.84;2620587;47;20027;-64
2022/01/14 11:11:27;;;;;;;39.15;22.45;;;;;;;4.56;68.05;100742.47;2619820;54;20034;-63
2022/01/14 11:13:59;;;;;;;43.72;27.40;;;;;;;4.63;67.84;100734.09;2620219;54;20034;-63
2022/01/14 11:16:30;;;;;;;46.35;28.40;;;;;;;4.67;67.96;100735.53;2621217;54;20550;-71
2022/01/14 11:19:02;;;;;;;51.15;29.40;;;;;;;4.74;67.72;100729.88;2620610;54;20042;-63
2022/01/14 11:24:16;;;;;;;50.63;29.10;;;;;;;4.77;67.84;100720.00;2618855;54;20578;-63
2022/01/14 11:26:48;;;;;;;52.03;29.50;;;;;;;4.86;67.25;100711.50;2618366;54;20030;-63
2022/01/14 11:29:23;;;;;;;47.28;29.23;;;;;;;4.94;67.66;100701.31;2618612;54;20030;-64
2022/01/14 11:32:02;;;;;;;53.05;30.25;;;;;;;5.07;67.65;100705.69;2618973;54;20045;-63
2022/01/14 11:34:37;;;;;;;48.22;28.25;;;;;;;5.16;67.13;100691.91;2619139;54;20038;-63
2022/01/14 11:37:10;;;;;;;38.03;25.08;;;;;;;5.27;67.34;100689.34;2618551;54;20035;-63
2022/01/14 19:29:48;;;;;;;19.10;11.63;;;;;;;2.07;74.79;100457.56;2603607;54;20038;-64
2022/01/14 19:32:18;;;;;;;19.10;12.23;;;;;;;2.08;74.00;100467.09;2618280;54;20031;-65
2022/01/14 19:34:56;;;;;;;15.45;9.60;;;;;;;1.96;74.50;100454.81;2618027;54;20049;-65
2022/01/14 19:37:25;;;;;;;16.15;9.57;;;;;;;1.90;74.53;100456.03;2618152;54;20057;-63
2022/01/14 19:39:55;;;;;;;18.90;10.25;;;;;;;1.87;74.73;100471.84;2618400;54;20035;-64